Terminal Aerodrome Forecast
Issued by NWS

Home | Current Version | Previous Version | Text Only | Print | Product List | Glossary On
Versions: 1 2 3 4 5 6 7 8 9 10 11 12 13 14 15 16 17 18 19 20 21 22 23 24 25 26 27 28 29 30
000
FTUS45 KGJT 240227 AAA
TAFCNY
TAF AMD
KCNY 240227Z 2402/2424 36010KT P6SM VCTS SCT110CB BKN180
      TEMPO 2402/2404 VRB10G20KT -TSRA BKN110CB
     FM240400 13008KT P6SM VCSH SCT100 BKN150
     FM241800 19013G23KT P6SM VCTS SCT100CB BKN150=

USA.gov is the U.S. government's official web portal to all federal, state and local government web resources and services.